createdAt,value
2019-04-29T00:02:09.773Z,22.07
2019-04-29T00:04:38.346Z,23.30
2019-04-29T00:07:07.291Z,23.18
2019-04-29T00:09:35.861Z,25.23
2019-04-29T00:12:04.427Z,24.18
2019-04-29T00:14:34.199Z,27.22
2019-04-29T00:17:10.337Z,29.00
2019-04-29T00:19:46.338Z,26.17
2019-04-29T00:22:14.932Z,30.40
2019-04-29T00:24:43.527Z,25.15
2019-04-29T00:27:12.166Z,25.80
2019-04-29T00:29:40.775Z,32.20
2019-04-29T00:32:10.113Z,33.50
2019-04-29T00:34:38.702Z,33.65
2019-04-29T00:37:08.920Z,32.98
2019-04-29T00:39:54.447Z,36.05
2019-04-29T00:42:27.387Z,34.95
2019-04-29T00:44:56.029Z,35.08
2019-04-29T00:47:24.668Z,30.00
2019-04-29T00:49:53.378Z,35.28
2019-04-29T00:52:21.876Z,34.43
2019-04-29T00:54:52.137Z,34.90
2019-04-29T00:57:20.710Z,33.10
2019-04-29T00:59:49.279Z,30.57
2019-04-29T01:02:18.050Z,34.03
2019-04-29T01:04:46.687Z,30.97
2019-04-29T01:07:15.256Z,31.77
2019-04-29T01:09:43.830Z,29.10
2019-04-29T01:12:12.402Z,30.52
2019-04-29T01:14:40.998Z,30.25
2019-04-29T01:17:09.609Z,32.08
2019-04-29T01:19:38.345Z,30.15
2019-04-29T01:22:06.952Z,32.65
2019-04-29T01:24:35.624Z,31.80
2019-04-29T01:27:06.037Z,26.80
2019-04-29T01:29:35.206Z,28.85
2019-04-29T01:32:05.439Z,28.75
2019-04-29T01:34:35.684Z,26.07
2019-04-29T01:37:04.352Z,28.05
2019-04-29T01:39:37.486Z,30.60
2019-04-29T01:42:07.751Z,27.75
2019-04-29T01:44:36.558Z,28.92
2019-04-29T01:47:05.131Z,27.20
2019-04-29T01:49:33.704Z,27.62
2019-04-29T01:52:02.279Z,28.52
2019-04-29T01:54:30.970Z,26.00
2019-04-29T01:56:59.480Z,27.15
2019-04-29T01:59:28.047Z,27.42
2019-04-29T02:01:56.621Z,27.40
2019-04-29T02:04:25.224Z,26.85
2019-04-29T02:06:53.925Z,26.87
2019-04-29T02:09:30.217Z,26.95
2019-04-29T02:11:58.770Z,27.32
2019-04-29T02:14:27.373Z,27.20
2019-04-29T02:16:55.948Z,28.12
2019-04-29T02:19:24.545Z,31.20
2019-04-29T02:22:12.987Z,27.75
2019-04-29T02:24:49.180Z,29.70
2019-04-29T02:27:17.921Z,29.85
2019-04-29T02:29:46.640Z,28.80
2019-04-29T02:32:15.243Z,29.95
2019-04-29T02:34:43.814Z,31.40
2019-04-29T02:37:14.063Z,33.45
2019-04-29T02:39:47.311Z,30.17
2019-04-29T02:42:33.904Z,27.35
2019-04-29T02:45:04.351Z,34.15
2019-04-29T02:47:32.847Z,35.55
2019-04-29T02:50:01.458Z,30.55
2019-04-29T02:52:30.147Z,38.55
2019-04-29T02:55:00.424Z,31.62
2019-04-29T02:57:39.857Z,29.63
2019-04-29T03:00:11.168Z,31.10
2019-04-29T03:02:41.379Z,33.67
2019-04-29T03:05:14.661Z,35.95
2019-04-29T03:07:43.372Z,32.73
2019-04-29T03:10:12.908Z,32.73
2019-04-29T03:12:41.462Z,31.93
2019-04-29T03:15:10.369Z,33.90
2019-04-29T03:17:39.113Z,34.33
2019-04-29T03:20:15.603Z,36.00
2019-04-29T03:22:45.999Z,34.88
2019-04-29T03:25:14.598Z,33.20
2019-04-29T03:27:43.214Z,34.58
2019-04-29T03:30:12.028Z,33.33
2019-04-29T03:32:40.630Z,37.23
2019-04-29T03:35:09.287Z,35.90
2019-04-29T03:37:37.860Z,34.05
2019-04-29T03:40:07.060Z,34.50
2019-04-29T03:42:35.739Z,38.30
2019-04-29T03:45:06.296Z,38.10
2019-04-29T03:47:34.898Z,40.73
2019-04-29T03:50:03.677Z,35.23
2019-04-29T03:52:32.210Z,37.53
2019-04-29T03:55:00.783Z,36.73
2019-04-29T03:57:30.988Z,39.53
2019-04-29T03:59:59.494Z,37.10
2019-04-29T04:02:29.750Z,38.10
2019-04-29T04:05:05.968Z,44.42
2019-04-29T04:07:45.274Z,43.33
2019-04-29T04:10:14.124Z,41.40
2019-04-29T04:12:42.628Z,39.55
2019-04-29T04:15:11.425Z,37.73
2019-04-29T04:17:47.416Z,42.60
2019-04-29T04:20:16.182Z,42.55
2019-04-29T04:22:49.204Z,43.17
2019-04-29T04:25:18.650Z,45.75
2019-04-29T04:27:48.709Z,42.50
2019-04-29T04:30:19.217Z,41.18
2019-04-29T04:32:47.856Z,39.88
2019-04-29T04:35:16.751Z,44.42
2019-04-29T04:37:45.470Z,41.53
2019-04-29T04:40:16.257Z,41.25
2019-04-29T04:42:44.851Z,48.05
2019-04-29T04:45:13.524Z,42.70
2019-04-29T04:47:42.099Z,44.05
2019-04-29T04:50:10.964Z,41.28
2019-04-29T04:52:39.538Z,42.27
2019-04-29T04:55:08.982Z,48.10
2019-04-29T04:57:37.556Z,41.75
2019-04-29T05:00:09.498Z,43.80
2019-04-29T05:02:38.063Z,43.80
2019-04-29T05:05:06.770Z,40.60
2019-04-29T05:07:35.413Z,38.88
2019-04-29T05:10:04.628Z,42.88
2019-04-29T05:12:33.180Z,44.88
2019-04-29T05:15:01.762Z,49.35
2019-04-29T05:17:30.253Z,43.73
2019-04-29T05:19:58.834Z,47.20
2019-04-29T05:22:27.411Z,42.05
2019-04-29T05:24:55.981Z,47.00
2019-04-29T05:27:24.607Z,43.58
2019-04-29T05:29:53.176Z,44.33
2019-04-29T05:32:21.749Z,41.50
2019-04-29T05:34:54.918Z,44.80
2019-04-29T05:37:24.272Z,41.33
2019-04-29T05:39:52.843Z,43.87
2019-04-29T05:42:21.548Z,42.53
2019-04-29T05:44:51.713Z,44.25
2019-04-29T05:47:30.994Z,38.75
2019-04-29T05:50:18.492Z,39.85
2019-04-29T05:52:58.084Z,37.00
2019-04-29T05:55:26.661Z,42.95
2019-04-29T05:58:02.913Z,37.15
2019-04-29T06:00:27.244Z,37.58
2019-04-29T06:02:55.817Z,38.85
2019-04-29T06:05:24.453Z,36.68
2019-04-29T06:07:56.110Z,34.45
2019-04-29T06:10:24.699Z,42.20
2019-04-29T06:12:53.404Z,42.85
2019-04-29T06:15:22.021Z,41.98
2019-04-29T06:17:50.519Z,40.75
2019-04-29T06:20:22.633Z,41.73
2019-04-29T06:22:49.400Z,41.98
2019-04-29T06:25:17.937Z,39.35
2019-04-29T06:27:46.517Z,42.40
2019-04-29T06:30:15.690Z,38.85
2019-04-29T06:32:44.272Z,38.40
2019-04-29T06:35:14.167Z,35.38
2019-04-29T06:37:43.059Z,34.65
2019-04-29T06:40:11.774Z,34.38
2019-04-29T06:42:40.368Z,34.70
2019-04-29T06:45:09.048Z,39.98
2019-04-29T06:47:37.569Z,38.10
2019-04-29T06:50:08.485Z,39.75
2019-04-29T06:52:37.061Z,39.53
2019-04-29T06:55:06.842Z,38.98
2019-04-29T06:57:35.544Z,41.70
2019-04-29T07:00:07.069Z,41.53
2019-04-29T07:02:35.675Z,41.60
2019-04-29T07:05:07.376Z,42.27
2019-04-29T07:07:36.002Z,39.25
2019-04-29T07:10:05.377Z,39.08
2019-04-29T07:12:33.964Z,40.52
2019-04-29T07:15:02.683Z,40.85
2019-04-29T07:17:31.193Z,38.05
2019-04-29T07:20:01.966Z,41.00
2019-04-29T07:22:31.207Z,37.17
2019-04-29T07:24:59.878Z,39.92
2019-04-29T07:27:28.486Z,40.23
2019-04-29T07:29:57.065Z,35.40
2019-04-29T07:32:25.772Z,34.48
2019-04-29T07:34:54.337Z,34.50
2019-04-29T07:37:22.923Z,32.88
2019-04-29T07:39:51.508Z,34.03
2019-04-29T07:42:20.084Z,31.10
2019-04-29T07:45:06.576Z,35.38
2019-04-29T07:47:35.723Z,32.30
2019-04-29T07:50:06.276Z,31.52
2019-04-29T07:52:34.825Z,32.33
2019-04-29T07:55:04.410Z,33.42
2019-04-29T07:57:32.994Z,33.18
2019-04-29T08:00:01.616Z,31.00
2019-04-29T08:02:30.192Z,32.80
2019-04-29T08:04:58.770Z,28.70
2019-04-29T08:07:27.753Z,31.57
2019-04-29T08:09:56.631Z,28.12
2019-04-29T08:12:26.910Z,24.07
2019-04-29T08:14:58.548Z,27.02
2019-04-29T08:17:26.198Z,28.80
2019-04-29T08:19:54.886Z,28.17
2019-04-29T08:22:27.723Z,29.12
2019-04-29T08:24:53.786Z,26.82
2019-04-29T08:27:22.279Z,27.80
2019-04-29T08:29:50.854Z,26.87
2019-04-29T08:32:19.449Z,28.10
2019-04-29T08:34:48.045Z,27.77
2019-04-29T08:37:16.619Z,27.90
2019-04-29T08:39:45.308Z,27.80
2019-04-29T08:42:24.504Z,23.45
2019-04-29T08:44:59.770Z,19.25
2019-04-29T08:47:32.103Z,15.80
2019-04-29T08:50:00.843Z,19.37
2019-04-29T08:52:29.517Z,16.62
2019-04-29T08:54:58.090Z,15.70
2019-04-29T08:57:26.671Z,18.10
2019-04-29T08:59:55.250Z,17.52
2019-04-29T09:02:34.585Z,19.92
2019-04-29T09:04:54.373Z,20.25
2019-04-29T09:07:23.263Z,21.30
2019-04-29T09:09:56.180Z,20.85
2019-04-29T09:12:23.823Z,12.80
2019-04-29T09:14:52.626Z,13.70
2019-04-29T09:17:21.268Z,13.03
2019-04-29T09:19:49.840Z,16.93
2019-04-29T09:22:20.055Z,14.93
2019-04-29T09:25:02.477Z,12.65
2019-04-29T09:27:31.532Z,14.15
2019-04-29T09:30:00.574Z,11.53
2019-04-29T09:32:29.163Z,13.00
2019-04-29T09:34:59.473Z,13.72
2019-04-29T09:37:28.217Z,14.43
2019-04-29T09:39:57.100Z,13.88
2019-04-29T09:42:36.210Z,13.62
2019-04-29T09:45:24.503Z,14.03
2019-04-29T09:47:52.857Z,14.30
2019-04-29T09:50:21.432Z,15.23
2019-04-29T09:52:49.942Z,14.15
2019-04-29T09:55:19.895Z,12.68
2019-04-29T09:57:48.451Z,12.93
2019-04-29T10:00:22.004Z,14.18
2019-04-29T10:02:57.933Z,14.05
2019-04-29T10:05:37.300Z,12.10
2019-04-29T10:08:06.541Z,12.30
2019-04-29T10:10:37.197Z,12.45
2019-04-29T10:13:05.749Z,11.40
2019-04-29T10:15:42.064Z,12.75
2019-04-29T10:18:12.321Z,12.23
2019-04-29T10:20:48.580Z,14.45
2019-04-29T10:23:17.266Z,13.78
2019-04-29T10:25:45.879Z,12.82
2019-04-29T10:28:14.463Z,13.43
2019-04-29T10:30:43.510Z,12.63
2019-04-29T10:33:12.769Z,12.25
2019-04-29T10:35:45.217Z,13.70
2019-04-29T10:38:12.831Z,12.60
2019-04-29T10:41:03.321Z,12.78
2019-04-29T10:43:49.455Z,12.10
2019-04-29T10:46:33.747Z,12.33
2019-04-29T10:49:12.907Z,11.80
2019-04-29T10:51:41.652Z,12.20
2019-04-29T10:54:14.382Z,11.78
2019-04-29T10:56:43.098Z,11.33
2019-04-29T10:59:11.774Z,11.33
2019-04-29T11:02:01.018Z,10.18
2019-04-29T11:04:24.121Z,13.43
2019-04-29T11:06:52.731Z,11.33
2019-04-29T11:09:36.484Z,10.95
2019-04-29T11:12:08.858Z,11.45
2019-04-29T11:14:37.580Z,11.85
2019-04-29T11:17:16.028Z,11.03
2019-04-29T11:19:39.944Z,10.58
2019-04-29T11:22:11.533Z,10.08
2019-04-29T11:24:44.646Z,10.13
2019-04-29T11:27:23.796Z,9.73
2019-04-29T11:29:52.419Z,12.30
2019-04-29T11:32:29.213Z,9.10
2019-04-29T11:37:24.986Z,13.48
2019-04-29T11:39:56.843Z,8.35
2019-04-29T11:42:24.359Z,9.35
2019-04-29T11:44:57.268Z,10.98
2019-04-29T11:47:25.175Z,8.93
2019-04-29T11:50:01.229Z,9.30
2019-04-29T11:52:29.873Z,10.10
2019-04-29T11:54:58.384Z,8.60
2019-04-29T11:57:40.721Z,8.50
2019-04-29T12:02:45.455Z,8.75
2019-04-29T12:05:12.279Z,9.05
2019-04-29T12:07:40.847Z,9.35
2019-04-29T12:10:11.227Z,10.05
2019-04-29T12:12:43.578Z,8.93
2019-04-29T12:15:27.056Z,8.55
2019-04-29T12:18:03.315Z,9.43
2019-04-29T12:20:33.534Z,11.08
2019-04-29T12:23:02.219Z,9.60
2019-04-29T12:25:30.900Z,9.60
2019-04-29T12:28:01.955Z,11.60
2019-04-29T12:30:34.675Z,9.00
2019-04-29T12:33:06.703Z,7.97
2019-04-29T12:35:50.754Z,7.97
2019-04-29T12:38:23.856Z,7.87
2019-04-29T12:41:20.441Z,10.43
2019-04-29T12:44:00.857Z,8.83
2019-04-29T12:46:32.265Z,6.58
2019-04-29T12:49:03.646Z,6.37
2019-04-29T12:51:31.239Z,5.67
2019-04-29T12:53:59.809Z,6.65
2019-04-29T12:56:33.129Z,5.45
2019-04-29T12:59:02.076Z,5.62
2019-04-29T13:01:51.256Z,8.95
2019-04-29T13:04:22.047Z,6.78
2019-04-29T13:07:06.763Z,10.30
2019-04-29T13:09:39.074Z,6.17
2019-04-29T13:12:19.088Z,4.45
2019-04-29T13:14:40.155Z,6.40
2019-04-29T13:17:14.700Z,5.42
2019-04-29T13:19:50.286Z,7.33
2019-04-29T13:22:17.125Z,7.40
2019-04-29T13:24:45.825Z,7.40
2019-04-29T13:27:16.235Z,4.85
2019-04-29T13:29:45.236Z,4.95
2019-04-29T13:32:13.846Z,7.12
2019-04-29T13:34:43.993Z,6.08
2019-04-29T13:37:18.820Z,6.05
2019-04-29T13:39:43.034Z,5.90
2019-04-29T13:42:15.557Z,6.90
2019-04-29T13:44:46.013Z,6.72
2019-04-29T13:47:16.661Z,5.97
2019-04-29T13:49:49.414Z,5.35
2019-04-29T13:52:17.511Z,4.97
2019-04-29T13:54:46.083Z,5.05
2019-04-29T13:57:15.955Z,20.27
2019-04-29T13:59:49.343Z,7.62
2019-04-29T14:02:22.711Z,5.30
2019-04-29T14:05:00.161Z,4.65
2019-04-29T14:07:26.920Z,5.90
2019-04-29T14:09:55.426Z,18.15
2019-04-29T14:12:47.889Z,5.58
2019-04-29T14:14:58.486Z,6.67
2019-04-29T14:17:26.872Z,6.03
2019-04-29T14:19:57.031Z,5.10
2019-04-29T14:22:25.521Z,6.17
2019-04-29T14:24:54.088Z,5.20
2019-04-29T14:27:25.233Z,6.65
2019-04-29T14:29:53.012Z,4.72
2019-04-29T14:32:33.201Z,5.50
2019-04-29T14:35:07.032Z,6.20
2019-04-29T14:37:33.165Z,7.35
2019-04-29T14:40:02.798Z,5.90
2019-04-29T14:42:36.463Z,5.25
2019-04-29T14:45:07.171Z,5.47
2019-04-29T14:47:37.410Z,5.45
2019-04-29T14:50:15.730Z,6.33
2019-04-29T14:52:49.249Z,5.65
2019-04-29T14:55:15.235Z,5.22
2019-04-29T14:57:43.839Z,7.35
2019-04-29T15:00:20.169Z,6.12
2019-04-29T15:02:48.883Z,6.50
2019-04-29T15:05:17.545Z,6.10
2019-04-29T15:07:46.258Z,5.62
2019-04-29T15:10:14.999Z,6.03
2019-04-29T15:13:06.725Z,7.60
2019-04-29T15:15:34.186Z,5.70
2019-04-29T15:18:16.475Z,6.00
2019-04-29T15:20:56.529Z,6.42
2019-04-29T15:23:28.844Z,6.97
2019-04-29T15:25:55.447Z,6.87
2019-04-29T15:28:23.950Z,7.67
2019-04-29T15:30:53.463Z,6.20
2019-04-29T15:33:22.161Z,6.85
2019-04-29T15:35:50.744Z,7.75
2019-04-29T15:38:19.351Z,6.70
2019-04-29T15:40:47.916Z,6.87
2019-04-29T15:43:17.759Z,7.92
2019-04-29T15:45:46.860Z,8.30
2019-04-29T15:48:15.427Z,6.83
2019-04-29T15:50:44.005Z,6.85
2019-04-29T15:53:12.509Z,7.05
2019-04-29T15:55:41.455Z,8.35
2019-04-29T15:58:10.236Z,7.50
2019-04-29T16:00:40.631Z,9.45
2019-04-29T16:03:12.730Z,7.70
2019-04-29T16:06:18.922Z,7.85
2019-04-29T16:08:40.092Z,9.13
2019-04-29T16:11:29.443Z,8.70
2019-04-29T16:14:09.122Z,8.90
2019-04-29T16:16:27.584Z,9.78
2019-04-29T16:19:07.127Z,8.85
2019-04-29T16:21:26.452Z,9.38
2019-04-29T16:23:57.758Z,9.05
2019-04-29T16:26:30.210Z,9.83
2019-04-29T16:28:55.913Z,10.53
2019-04-29T16:31:24.484Z,11.45
2019-04-29T16:33:54.733Z,9.45
2019-04-29T16:36:23.412Z,9.80
2019-04-29T16:38:53.540Z,9.13
2019-04-29T16:41:36.100Z,10.10
2019-04-29T16:44:06.771Z,9.88
2019-04-29T16:46:37.796Z,10.98
2019-04-29T16:49:06.015Z,11.95
2019-04-29T16:51:34.587Z,15.35
2019-04-29T16:54:03.094Z,11.48
2019-04-29T16:56:31.671Z,11.28
2019-04-29T16:59:08.847Z,13.18
2019-04-29T17:01:30.804Z,11.53
2019-04-29T17:04:05.154Z,16.70
2019-04-29T17:06:30.105Z,10.75
2019-04-29T17:09:05.014Z,13.80
2019-04-29T17:11:32.299Z,11.95
2019-04-29T17:14:03.517Z,13.58
2019-04-29T17:16:31.257Z,13.53
2019-04-29T17:18:59.909Z,12.25
2019-04-29T17:21:28.524Z,11.78
2019-04-29T17:23:57.109Z,13.45
2019-04-29T17:26:27.573Z,11.50
2019-04-29T17:29:11.843Z,12.70
2019-04-29T17:31:36.055Z,13.55
2019-04-29T17:34:43.786Z,14.85
2019-04-29T17:36:48.834Z,13.05
2019-04-29T17:39:19.064Z,13.43
2019-04-29T17:41:47.678Z,14.13
2019-04-29T17:44:29.874Z,13.32
2019-04-29T17:47:00.482Z,16.30
2019-04-29T17:49:30.949Z,16.60
2019-04-29T17:52:02.920Z,16.85
2019-04-29T17:54:34.935Z,15.23
2019-04-29T17:57:25.546Z,18.60
2019-04-29T17:59:40.774Z,15.78
2019-04-29T18:02:22.104Z,15.28
2019-04-29T18:04:56.008Z,17.17
2019-04-29T18:07:30.512Z,18.40
2019-04-29T18:10:01.162Z,17.98
2019-04-29T18:12:33.659Z,17.98
2019-04-29T18:15:00.295Z,20.85
2019-04-29T18:17:31.287Z,15.65
2019-04-29T18:20:01.712Z,21.02
2019-04-29T18:22:51.140Z,16.87
2019-04-29T18:25:30.767Z,18.27
2019-04-29T18:28:00.047Z,18.48
2019-04-29T18:30:36.000Z,21.75
2019-04-29T18:33:00.000Z,19.45
2019-04-29T18:35:35.818Z,20.08
2019-04-29T18:38:11.865Z,18.73
2019-04-29T18:40:42.189Z,18.40
2019-04-29T18:43:10.870Z,16.82
2019-04-29T18:45:52.997Z,19.42
2019-04-29T18:48:16.944Z,20.45
2019-04-29T18:50:45.363Z,20.90
2019-04-29T18:53:15.572Z,19.65
2019-04-29T19:00:21.881Z,20.97
2019-04-29T19:02:57.070Z,21.85
2019-04-29T19:05:32.355Z,20.55
2019-04-29T19:08:11.378Z,22.02
2019-04-29T19:10:34.367Z,22.22
2019-04-29T19:13:05.375Z,21.15
2019-04-29T19:15:35.417Z,19.52
2019-04-29T19:18:07.625Z,21.87
2019-04-29T19:20:47.837Z,18.42
2019-04-29T19:23:16.087Z,22.13
2019-04-29T19:25:49.879Z,20.60
2019-04-29T19:28:29.960Z,20.25
2019-04-29T19:30:56.164Z,19.25
2019-04-29T19:33:25.218Z,19.00
2019-04-29T19:35:55.875Z,17.95
2019-04-29T19:38:26.722Z,21.20
2019-04-29T19:41:51.679Z,19.32
2019-04-29T19:44:26.448Z,18.37
2019-04-29T19:46:56.928Z,16.48
2019-04-29T19:49:26.431Z,18.42
2019-04-29T19:51:56.712Z,17.67
2019-04-29T19:54:28.575Z,17.65
2019-04-29T19:57:03.450Z,14.80
2019-04-29T19:59:30.052Z,17.07
2019-04-29T20:02:05.830Z,16.25
2019-04-29T20:04:39.270Z,15.80
2019-04-29T20:07:10.409Z,16.70
2019-04-29T20:09:40.411Z,17.05
2019-04-29T20:12:13.035Z,20.15
2019-04-29T20:14:41.850Z,20.37
2019-04-29T20:17:20.193Z,19.95
2019-04-29T20:19:56.692Z,22.13
2019-04-29T20:22:23.359Z,23.77
2019-04-29T20:24:52.628Z,23.92
2019-04-29T20:27:26.170Z,22.82
2019-04-29T20:29:52.974Z,22.62
2019-04-29T20:32:27.001Z,24.25
2019-04-29T20:34:57.440Z,24.55
2019-04-29T20:37:26.158Z,25.97
2019-04-29T20:39:57.221Z,23.80
2019-04-29T20:42:26.093Z,24.10
2019-04-29T20:44:55.306Z,27.20
2019-04-29T20:47:37.280Z,29.95
2019-04-29T20:49:54.771Z,26.93
2019-04-29T20:52:31.336Z,26.85
2019-04-29T20:55:02.462Z,27.02
2019-04-29T20:57:30.534Z,28.45
2019-04-29T20:59:59.498Z,27.87
2019-04-29T21:02:33.729Z,26.15
2019-04-29T21:04:58.959Z,28.45
2019-04-29T21:07:28.049Z,27.13
2019-04-29T21:10:00.022Z,30.92
2019-04-29T21:12:38.232Z,28.07
2019-04-29T21:15:14.952Z,26.62
2019-04-29T21:17:41.689Z,28.85
2019-04-29T21:20:10.288Z,26.80
2019-04-29T21:22:38.895Z,29.98
2019-04-29T21:25:08.557Z,28.67
2019-04-29T21:27:37.266Z,27.65
2019-04-29T21:30:06.962Z,30.68
2019-04-29T21:32:38.993Z,29.32
2019-04-29T21:35:16.914Z,30.43
2019-04-29T21:37:44.870Z,29.98
2019-04-29T21:40:18.550Z,29.07
2019-04-29T21:42:47.368Z,32.58
2019-04-29T21:45:17.496Z,33.60
2019-04-29T21:47:52.969Z,34.15
2019-04-29T21:50:16.646Z,35.30
2019-04-29T21:52:46.876Z,37.30
2019-04-29T21:55:16.087Z,36.08
2019-04-29T21:57:44.903Z,37.23
2019-04-29T22:00:19.818Z,37.58
2019-04-29T22:02:46.607Z,37.00
2019-04-29T22:05:18.322Z,39.53
2019-04-29T22:07:47.490Z,34.53
2019-04-29T22:10:19.926Z,36.75
2019-04-29T22:12:50.819Z,36.48
2019-04-29T22:15:29.261Z,40.88
2019-04-29T22:17:56.180Z,38.48
2019-04-29T22:20:18.188Z,38.50
2019-04-29T22:22:47.779Z,37.75
2019-04-29T22:25:16.836Z,39.48
2019-04-29T22:27:45.419Z,39.20
2019-04-29T22:30:18.528Z,39.40
2019-04-29T22:32:47.138Z,38.42
2019-04-29T22:35:16.512Z,40.03
2019-04-29T22:37:45.531Z,35.55
2019-04-29T22:40:15.440Z,41.55
2019-04-29T22:42:48.700Z,41.48
2019-04-29T22:45:16.975Z,41.75
2019-04-29T22:47:45.555Z,39.20
2019-04-29T22:50:14.340Z,39.60
2019-04-29T22:52:42.946Z,41.18
2019-04-29T22:55:11.624Z,38.88
2019-04-29T22:57:40.202Z,44.35
2019-04-29T23:00:11.077Z,42.67
2019-04-29T23:02:39.761Z,42.83
2019-04-29T23:05:08.356Z,41.63
2019-04-29T23:07:37.785Z,45.35
2019-04-29T23:10:07.626Z,42.75
2019-04-29T23:12:36.204Z,42.40
2019-04-29T23:15:06.684Z,45.08
2019-04-29T23:17:35.530Z,42.15
2019-04-29T23:20:27.464Z,44.38
2019-04-29T23:22:56.912Z,44.90
2019-04-29T23:25:30.890Z,47.62
2019-04-29T23:27:59.460Z,47.67
2019-04-29T23:30:28.956Z,46.33
2019-04-29T23:32:57.637Z,52.38
2019-04-29T23:35:26.284Z,44.15
2019-04-29T23:37:57.427Z,41.75
2019-04-29T23:40:25.210Z,42.30
2019-04-29T23:42:55.406Z,48.68
2019-04-29T23:45:25.243Z,48.15
2019-04-29T23:47:55.517Z,43.83
2019-04-29T23:50:27.875Z,46.15
2019-04-29T23:52:55.667Z,51.53
2019-04-29T23:55:25.659Z,50.30
2019-04-29T23:58:03.790Z,42.55
